sensor_id;sensor_type;location;lat;lon;timestamp;temperature;humidity
17423;DHT22;8829;47.932;7.810;2023-01-25T00:00:21;1.60;99.90
17423;DHT22;8829;47.932;7.810;2023-01-25T00:02:47;1.70;99.90
17423;DHT22;8829;47.932;7.810;2023-01-25T00:05:14;1.70;99.90
17423;DHT22;8829;47.932;7.810;2023-01-25T00:07:41;1.70;99.90
17423;DHT22;8829;47.932;7.810;2023-01-25T00:10:10;1.60;99.90
17423;DHT22;8829;47.932;7.810;2023-01-25T00:12:37;1.60;99.90
17423;DHT22;8829;47.932;7.810;2023-01-25T00:15:04;1.60;99.90
17423;DHT22;8829;47.932;7.810;2023-01-25T00:17:31;1.70;99.90
17423;DHT22;8829;47.932;7.810;2023-01-25T00:19:58;1.80;99.90
17423;DHT22;8829;47.932;7.810;2023-01-25T00:22:26;1.70;99.90
17423;DHT22;8829;47.932;7.810;2023-01-25T00:24:53;1.70;99.90
17423;DHT22;8829;47.932;7.810;2023-01-25T00:27:21;1.90;99.90
17423;DHT22;8829;47.932;7.810;2023-01-25T00:29:48;1.70;99.90
17423;DHT22;8829;47.932;7.810;2023-01-25T00:32:36;1.60;99.90
17423;DHT22;8829;47.932;7.810;2023-01-25T00:35:10;1.80;99.90
17423;DHT22;8829;47.932;7.810;2023-01-25T00:37:38;1.80;99.90
17423;DHT22;8829;47.932;7.810;2023-01-25T00:40:08;1.80;99.90
17423;DHT22;8829;47.932;7.810;2023-01-25T00:42:36;1.80;99.90
17423;DHT22;8829;47.932;7.810;2023-01-25T00:45:03;1.70;99.90
17423;DHT22;8829;47.932;7.810;2023-01-25T00:47:30;1.60;99.90
17423;DHT22;8829;47.932;7.810;2023-01-25T00:49:56;1.70;99.90
17423;DHT22;8829;47.932;7.810;2023-01-25T00:52:23;1.90;99.90
17423;DHT22;8829;47.932;7.810;2023-01-25T00:54:52;2.00;99.90
17423;DHT22;8829;47.932;7.810;2023-01-25T00:57:18;2.00;99.90
17423;DHT22;8829;47.932;7.810;2023-01-25T00:59:46;2.10;99.90
17423;DHT22;8829;47.932;7.810;2023-01-25T01:02:13;2.00;99.90
17423;DHT22;8829;47.932;7.810;2023-01-25T01:04:40;2.20;99.90
17423;DHT22;8829;47.932;7.810;2023-01-25T01:07:06;2.40;99.90
17423;DHT22;8829;47.932;7.810;2023-01-25T01:09:33;2.50;99.90
17423;DHT22;8829;47.932;7.810;2023-01-25T01:12:00;2.60;99.90
17423;DHT22;8829;47.932;7.810;2023-01-25T01:14:27;2.70;99.90
17423;DHT22;8829;47.932;7.810;2023-01-25T01:16:55;2.80;99.90
17423;DHT22;8829;47.932;7.810;2023-01-25T01:19:21;2.80;99.90
17423;DHT22;8829;47.932;7.810;2023-01-25T01:21:48;2.90;99.90
17423;DHT22;8829;47.932;7.810;2023-01-25T01:24:15;2.90;99.90
17423;DHT22;8829;47.932;7.810;2023-01-25T01:26:42;3.00;99.90
17423;DHT22;8829;47.932;7.810;2023-01-25T01:29:09;3.10;99.90
17423;DHT22;8829;47.932;7.810;2023-01-25T01:31:35;3.10;99.90
17423;DHT22;8829;47.932;7.810;2023-01-25T01:34:03;3.00;99.90
17423;DHT22;8829;47.932;7.810;2023-01-25T01:36:30;3.10;99.90
17423;DHT22;8829;47.932;7.810;2023-01-25T01:38:57;3.10;99.90
17423;DHT22;8829;47.932;7.810;2023-01-25T01:41:25;3.10;99.90
17423;DHT22;8829;47.932;7.810;2023-01-25T01:43:51;3.00;99.90
17423;DHT22;8829;47.932;7.810;2023-01-25T01:46:22;3.00;99.90
17423;DHT22;8829;47.932;7.810;2023-01-25T01:48:53;2.90;99.90
17423;DHT22;8829;47.932;7.810;2023-01-25T01:51:29;2.90;99.90
17423;DHT22;8829;47.932;7.810;2023-01-25T01:54:02;2.70;99.90
17423;DHT22;8829;47.932;7.810;2023-01-25T01:56:37;2.80;99.90
17423;DHT22;8829;47.932;7.810;2023-01-25T01:59:06;2.50;99.90
17423;DHT22;8829;47.932;7.810;2023-01-25T02:01:34;2.30;99.90
17423;DHT22;8829;47.932;7.810;2023-01-25T02:04:01;2.20;99.90
17423;DHT22;8829;47.932;7.810;2023-01-25T02:06:35;2.00;99.90
17423;DHT22;8829;47.932;7.810;2023-01-25T02:09:05;2.10;99.90
17423;DHT22;8829;47.932;7.810;2023-01-25T02:11:32;2.20;99.90
17423;DHT22;8829;47.932;7.810;2023-01-25T02:13:59;2.30;99.90
17423;DHT22;8829;47.932;7.810;2023-01-25T02:16:27;2.20;99.90
17423;DHT22;8829;47.932;7.810;2023-01-25T02:18:56;2.10;99.90
17423;DHT22;8829;47.932;7.810;2023-01-25T02:21:26;1.90;99.90
17423;DHT22;8829;47.932;7.810;2023-01-25T02:24:01;1.90;99.90
17423;DHT22;8829;47.932;7.810;2023-01-25T02:26:31;1.90;99.90
17423;DHT22;8829;47.932;7.810;2023-01-25T02:28:59;1.70;99.90
17423;DHT22;8829;47.932;7.810;2023-01-25T02:31:27;1.80;99.90
17423;DHT22;8829;47.932;7.810;2023-01-25T02:33:54;1.90;99.90
17423;DHT22;8829;47.932;7.810;2023-01-25T02:36:24;1.90;99.90
17423;DHT22;8829;47.932;7.810;2023-01-25T02:38:53;1.90;99.90
17423;DHT22;8829;47.932;7.810;2023-01-25T02:41:24;1.90;99.90
17423;DHT22;8829;47.932;7.810;2023-01-25T02:43:53;2.00;99.90
17423;DHT22;8829;47.932;7.810;2023-01-25T02:46:23;1.90;99.90
17423;DHT22;8829;47.932;7.810;2023-01-25T02:48:52;1.80;99.90
17423;DHT22;8829;47.932;7.810;2023-01-25T02:51:19;1.80;99.90
17423;DHT22;8829;47.932;7.810;2023-01-25T02:53:46;1.80;99.90
17423;DHT22;8829;47.932;7.810;2023-01-25T02:56:13;1.70;99.90
17423;DHT22;8829;47.932;7.810;2023-01-25T02:58:40;1.50;99.90
17423;DHT22;8829;47.932;7.810;2023-01-25T03:01:08;1.50;99.90
17423;DHT22;8829;47.932;7.810;2023-01-25T03:03:35;1.60;99.90
17423;DHT22;8829;47.932;7.810;2023-01-25T03:06:01;1.60;99.90
17423;DHT22;8829;47.932;7.810;2023-01-25T03:08:28;1.50;99.90
17423;DHT22;8829;47.932;7.810;2023-01-25T03:10:56;1.50;99.90
17423;DHT22;8829;47.932;7.810;2023-01-25T03:13:23;1.50;99.90
17423;DHT22;8829;47.932;7.810;2023-01-25T03:15:50;1.40;99.90
17423;DHT22;8829;47.932;7.810;2023-01-25T03:18:18;1.50;99.90
17423;DHT22;8829;47.932;7.810;2023-01-25T03:20:45;1.60;99.90
17423;DHT22;8829;47.932;7.810;2023-01-25T03:23:11;1.60;99.90
17423;DHT22;8829;47.932;7.810;2023-01-25T03:25:38;1.60;99.90
17423;DHT22;8829;47.932;7.810;2023-01-25T03:28:05;1.60;99.90
17423;DHT22;8829;47.932;7.810;2023-01-25T03:30:31;1.80;99.90
17423;DHT22;8829;47.932;7.810;2023-01-25T03:32:58;2.10;99.90
17423;DHT22;8829;47.932;7.810;2023-01-25T03:35:26;2.20;99.90
17423;DHT22;8829;47.932;7.810;2023-01-25T03:37:53;2.30;99.90
17423;DHT22;8829;47.932;7.810;2023-01-25T03:40:19;2.40;99.90
17423;DHT22;8829;47.932;7.810;2023-01-25T03:42:46;2.50;99.90
17423;DHT22;8829;47.932;7.810;2023-01-25T03:45:13;2.60;99.90
17423;DHT22;8829;47.932;7.810;2023-01-25T03:47:40;2.70;99.90
17423;DHT22;8829;47.932;7.810;2023-01-25T03:50:08;2.70;99.90
17423;DHT22;8829;47.932;7.810;2023-01-25T03:52:37;2.80;99.90
17423;DHT22;8829;47.932;7.810;2023-01-25T03:55:07;2.90;99.90
17423;DHT22;8829;47.932;7.810;2023-01-25T03:57:34;2.80;99.90
17423;DHT22;8829;47.932;7.810;2023-01-25T04:00:00;2.80;99.90
17423;DHT22;8829;47.932;7.810;2023-01-25T04:02:27;2.80;99.90
17423;DHT22;8829;47.932;7.810;2023-01-25T04:04:54;2.80;99.90
17423;DHT22;8829;47.932;7.810;2023-01-25T04:07:21;2.90;99.90
17423;DHT22;8829;47.932;7.810;2023-01-25T04:09:49;3.00;99.90
17423;DHT22;8829;47.932;7.810;2023-01-25T04:12:15;3.00;99.90
17423;DHT22;8829;47.932;7.810;2023-01-25T04:14:42;3.00;99.90
17423;DHT22;8829;47.932;7.810;2023-01-25T04:17:09;3.00;99.90
17423;DHT22;8829;47.932;7.810;2023-01-25T04:19:35;3.10;99.90
17423;DHT22;8829;47.932;7.810;2023-01-25T04:22:02;3.10;99.90
17423;DHT22;8829;47.932;7.810;2023-01-25T04:24:29;3.10;99.90
17423;DHT22;8829;47.932;7.810;2023-01-25T04:26:57;3.10;99.90
17423;DHT22;8829;47.932;7.810;2023-01-25T04:29:24;3.20;99.90
17423;DHT22;8829;47.932;7.810;2023-01-25T04:31:50;3.20;99.90
17423;DHT22;8829;47.932;7.810;2023-01-25T04:34:17;3.10;99.90
17423;DHT22;8829;47.932;7.810;2023-01-25T04:36:44;3.10;99.90
17423;DHT22;8829;47.932;7.810;2023-01-25T04:39:10;3.10;99.90
17423;DHT22;8829;47.932;7.810;2023-01-25T04:41:37;3.20;99.90
17423;DHT22;8829;47.932;7.810;2023-01-25T04:44:05;3.20;99.90
17423;DHT22;8829;47.932;7.810;2023-01-25T04:46:32;3.10;99.90
17423;DHT22;8829;47.932;7.810;2023-01-25T04:48:58;3.10;99.90
17423;DHT22;8829;47.932;7.810;2023-01-25T04:51:25;3.10;99.90
17423;DHT22;8829;47.932;7.810;2023-01-25T04:53:52;3.10;99.90
17423;DHT22;8829;47.932;7.810;2023-01-25T04:56:18;3.10;99.90
17423;DHT22;8829;47.932;7.810;2023-01-25T04:58:45;3.10;99.90
17423;DHT22;8829;47.932;7.810;2023-01-25T05:01:13;3.00;99.90
17423;DHT22;8829;47.932;7.810;2023-01-25T05:03:39;2.70;99.90
17423;DHT22;8829;47.932;7.810;2023-01-25T05:06:06;2.20;99.90
17423;DHT22;8829;47.932;7.810;2023-01-25T05:08:33;2.20;99.90
17423;DHT22;8829;47.932;7.810;2023-01-25T05:10:59;2.10;99.90
17423;DHT22;8829;47.932;7.810;2023-01-25T05:13:26;2.00;99.90
17423;DHT22;8829;47.932;7.810;2023-01-25T05:15:54;1.80;99.90
17423;DHT22;8829;47.932;7.810;2023-01-25T05:18:23;1.80;99.90
17423;DHT22;8829;47.932;7.810;2023-01-25T05:20:53;1.70;99.90
17423;DHT22;8829;47.932;7.810;2023-01-25T05:23:20;1.70;99.90
17423;DHT22;8829;47.932;7.810;2023-01-25T05:25:47;1.60;99.90
17423;DHT22;8829;47.932;7.810;2023-01-25T05:28:31;1.50;99.90
17423;DHT22;8829;47.932;7.810;2023-01-25T05:30:58;1.50;99.90
17423;DHT22;8829;47.932;7.810;2023-01-25T05:33:26;1.70;99.90
17423;DHT22;8829;47.932;7.810;2023-01-25T05:35:52;1.60;99.90
17423;DHT22;8829;47.932;7.810;2023-01-25T05:38:20;1.60;99.90
17423;DHT22;8829;47.932;7.810;2023-01-25T05:40:47;1.60;99.90
17423;DHT22;8829;47.932;7.810;2023-01-25T05:43:13;1.70;99.90
17423;DHT22;8829;47.932;7.810;2023-01-25T05:45:40;1.90;99.90
17423;DHT22;8829;47.932;7.810;2023-01-25T05:48:07;2.00;99.90
17423;DHT22;8829;47.932;7.810;2023-01-25T05:50:35;2.00;99.90
17423;DHT22;8829;47.932;7.810;2023-01-25T05:53:02;2.10;99.90
17423;DHT22;8829;47.932;7.810;2023-01-25T05:55:28;1.80;99.90
17423;DHT22;8829;47.932;7.810;2023-01-25T05:57:55;1.70;99.90
17423;DHT22;8829;47.932;7.810;2023-01-25T06:00:22;1.70;99.90
17423;DHT22;8829;47.932;7.810;2023-01-25T06:02:49;1.90;99.90
17423;DHT22;8829;47.932;7.810;2023-01-25T06:05:15;2.00;99.90
17423;DHT22;8829;47.932;7.810;2023-01-25T06:07:43;2.20;99.90
17423;DHT22;8829;47.932;7.810;2023-01-25T06:10:10;2.30;99.90
17423;DHT22;8829;47.932;7.810;2023-01-25T06:12:37;2.50;99.90
17423;DHT22;8829;47.932;7.810;2023-01-25T06:15:05;2.60;99.90
17423;DHT22;8829;47.932;7.810;2023-01-25T06:17:32;2.70;99.90
17423;DHT22;8829;47.932;7.810;2023-01-25T06:19:58;2.60;99.90
17423;DHT22;8829;47.932;7.810;2023-01-25T06:22:25;2.40;99.90
17423;DHT22;8829;47.932;7.810;2023-01-25T06:24:53;2.20;99.90
17423;DHT22;8829;47.932;7.810;2023-01-25T06:27:20;2.00;99.90
17423;DHT22;8829;47.932;7.810;2023-01-25T06:29:46;2.10;99.90
17423;DHT22;8829;47.932;7.810;2023-01-25T06:32:13;1.90;99.90
17423;DHT22;8829;47.932;7.810;2023-01-25T06:34:40;1.80;99.90
17423;DHT22;8829;47.932;7.810;2023-01-25T06:37:06;1.70;99.90
17423;DHT22;8829;47.932;7.810;2023-01-25T06:39:33;1.60;99.90
17423;DHT22;8829;47.932;7.810;2023-01-25T06:42:01;1.50;99.90
17423;DHT22;8829;47.932;7.810;2023-01-25T06:44:27;1.50;99.90
17423;DHT22;8829;47.932;7.810;2023-01-25T06:46:54;1.40;99.90
17423;DHT22;8829;47.932;7.810;2023-01-25T06:49:22;1.40;99.90
17423;DHT22;8829;47.932;7.810;2023-01-25T06:51:49;1.30;99.90
17423;DHT22;8829;47.932;7.810;2023-01-25T06:54:15;1.30;99.90
17423;DHT22;8829;47.932;7.810;2023-01-25T06:56:42;1.20;99.90
17423;DHT22;8829;47.932;7.810;2023-01-25T06:59:10;1.30;99.90
17423;DHT22;8829;47.932;7.810;2023-01-25T07:01:36;1.30;99.90
17423;DHT22;8829;47.932;7.810;2023-01-25T07:04:03;1.50;99.90
17423;DHT22;8829;47.932;7.810;2023-01-25T07:06:31;1.60;99.90
17423;DHT22;8829;47.932;7.810;2023-01-25T07:09:01;1.60;99.90
17423;DHT22;8829;47.932;7.810;2023-01-25T07:11:28;1.60;99.90
17423;DHT22;8829;47.932;7.810;2023-01-25T07:13:55;1.70;99.90
17423;DHT22;8829;47.932;7.810;2023-01-25T07:16:23;1.50;99.90
17423;DHT22;8829;47.932;7.810;2023-01-25T07:18:50;1.30;99.90
17423;DHT22;8829;47.932;7.810;2023-01-25T07:21:18;1.30;99.90
17423;DHT22;8829;47.932;7.810;2023-01-25T07:23:45;1.40;99.90
17423;DHT22;8829;47.932;7.810;2023-01-25T07:26:14;1.50;99.90
17423;DHT22;8829;47.932;7.810;2023-01-25T07:28:42;1.50;99.90
17423;DHT22;8829;47.932;7.810;2023-01-25T07:31:09;1.50;99.90
17423;DHT22;8829;47.932;7.810;2023-01-25T07:33:37;1.50;99.90
17423;DHT22;8829;47.932;7.810;2023-01-25T07:36:06;1.40;99.90
17423;DHT22;8829;47.932;7.810;2023-01-25T07:38:33;1.30;99.90
17423;DHT22;8829;47.932;7.810;2023-01-25T07:41:00;1.20;99.90
17423;DHT22;8829;47.932;7.810;2023-01-25T07:43:28;1.30;99.90
17423;DHT22;8829;47.932;7.810;2023-01-25T07:45:59;1.30;99.90
17423;DHT22;8829;47.932;7.810;2023-01-25T07:48:26;1.30;99.90
17423;DHT22;8829;47.932;7.810;2023-01-25T07:50:57;1.30;99.90
17423;DHT22;8829;47.932;7.810;2023-01-25T07:53:37;1.30;99.90
17423;DHT22;8829;47.932;7.810;2023-01-25T07:56:04;1.30;99.90
17423;DHT22;8829;47.932;7.810;2023-01-25T07:58:30;1.40;99.90
17423;DHT22;8829;47.932;7.810;2023-01-25T08:00:57;1.30;99.90
17423;DHT22;8829;47.932;7.810;2023-01-25T08:03:30;1.30;99.90
17423;DHT22;8829;47.932;7.810;2023-01-25T08:05:58;1.20;99.90
17423;DHT22;8829;47.932;7.810;2023-01-25T08:08:26;1.10;99.90
17423;DHT22;8829;47.932;7.810;2023-01-25T08:10:53;1.10;99.90
17423;DHT22;8829;47.932;7.810;2023-01-25T08:13:19;1.20;99.90
17423;DHT22;8829;47.932;7.810;2023-01-25T08:15:52;1.50;99.90
17423;DHT22;8829;47.932;7.810;2023-01-25T08:18:19;1.80;99.90
17423;DHT22;8829;47.932;7.810;2023-01-25T08:20:46;1.90;99.90
17423;DHT22;8829;47.932;7.810;2023-01-25T08:23:14;2.00;99.90
17423;DHT22;8829;47.932;7.810;2023-01-25T08:25:40;2.10;99.90
17423;DHT22;8829;47.932;7.810;2023-01-25T08:28:07;2.20;99.90
17423;DHT22;8829;47.932;7.810;2023-01-25T08:30:34;2.30;99.90
17423;DHT22;8829;47.932;7.810;2023-01-25T08:33:00;2.40;99.90
17423;DHT22;8829;47.932;7.810;2023-01-25T08:35:27;2.30;99.90
17423;DHT22;8829;47.932;7.810;2023-01-25T08:37:54;2.40;99.90
17423;DHT22;8829;47.932;7.810;2023-01-25T08:40:22;2.40;99.90
17423;DHT22;8829;47.932;7.810;2023-01-25T08:42:48;2.60;99.90
17423;DHT22;8829;47.932;7.810;2023-01-25T08:45:15;2.70;99.90
17423;DHT22;8829;47.932;7.810;2023-01-25T08:47:42;2.70;99.90
17423;DHT22;8829;47.932;7.810;2023-01-25T08:50:09;2.70;99.90
17423;DHT22;8829;47.932;7.810;2023-01-25T08:52:36;2.80;99.90
17423;DHT22;8829;47.932;7.810;2023-01-25T08:55:03;2.90;99.90
17423;DHT22;8829;47.932;7.810;2023-01-25T08:57:31;2.90;99.90
17423;DHT22;8829;47.932;7.810;2023-01-25T08:59:58;2.90;99.90
17423;DHT22;8829;47.932;7.810;2023-01-25T09:02:25;3.00;99.90
17423;DHT22;8829;47.932;7.810;2023-01-25T09:04:53;3.00;99.90
17423;DHT22;8829;47.932;7.810;2023-01-25T09:07:19;3.10;99.90
17423;DHT22;8829;47.932;7.810;2023-01-25T09:09:46;3.10;99.90
17423;DHT22;8829;47.932;7.810;2023-01-25T09:12:13;3.00;99.90
17423;DHT22;8829;47.932;7.810;2023-01-25T09:14:40;3.00;99.90
17423;DHT22;8829;47.932;7.810;2023-01-25T09:17:08;3.10;99.90
17423;DHT22;8829;47.932;7.810;2023-01-25T09:19:35;2.70;99.90
17423;DHT22;8829;47.932;7.810;2023-01-25T09:22:02;2.50;99.90
17423;DHT22;8829;47.932;7.810;2023-01-25T09:24:28;2.60;99.90
17423;DHT22;8829;47.932;7.810;2023-01-25T09:26:55;2.70;99.90
17423;DHT22;8829;47.932;7.810;2023-01-25T09:29:22;2.80;99.90
17423;DHT22;8829;47.932;7.810;2023-01-25T09:31:50;2.90;99.90
17423;DHT22;8829;47.932;7.810;2023-01-25T09:34:17;2.80;99.90
17423;DHT22;8829;47.932;7.810;2023-01-25T09:36:44;2.60;99.90
17423;DHT22;8829;47.932;7.810;2023-01-25T09:39:11;2.60;99.90
17423;DHT22;8829;47.932;7.810;2023-01-25T09:42:08;2.60;99.90
17423;DHT22;8829;47.932;7.810;2023-01-25T09:44:49;2.70;99.90
17423;DHT22;8829;47.932;7.810;2023-01-25T09:47:25;2.50;99.90
17423;DHT22;8829;47.932;7.810;2023-01-25T09:50:04;2.30;99.90
17423;DHT22;8829;47.932;7.810;2023-01-25T09:52:53;2.10;99.90
17423;DHT22;8829;47.932;7.810;2023-01-25T09:55:26;1.90;99.90
17423;DHT22;8829;47.932;7.810;2023-01-25T09:57:55;1.90;99.90
17423;DHT22;8829;47.932;7.810;2023-01-25T10:00:28;2.00;99.90
17423;DHT22;8829;47.932;7.810;2023-01-25T10:03:01;1.90;99.90
17423;DHT22;8829;47.932;7.810;2023-01-25T10:05:31;1.80;99.90
17423;DHT22;8829;47.932;7.810;2023-01-25T10:08:04;1.80;99.90
17423;DHT22;8829;47.932;7.810;2023-01-25T10:10:34;1.70;99.90
17423;DHT22;8829;47.932;7.810;2023-01-25T10:13:03;1.60;99.90
17423;DHT22;8829;47.932;7.810;2023-01-25T10:15:38;1.50;99.90
17423;DHT22;8829;47.932;7.810;2023-01-25T10:18:18;1.60;99.90
17423;DHT22;8829;47.932;7.810;2023-01-25T10:20:50;1.60;99.90
17423;DHT22;8829;47.932;7.810;2023-01-25T10:24:00;1.60;99.90
17423;DHT22;8829;47.932;7.810;2023-01-25T10:26:33;1.60;99.90
17423;DHT22;8829;47.932;7.810;2023-01-25T10:29:05;1.70;99.90
17423;DHT22;8829;47.932;7.810;2023-01-25T10:31:41;1.80;99.90
17423;DHT22;8829;47.932;7.810;2023-01-25T10:34:17;1.80;99.90
17423;DHT22;8829;47.932;7.810;2023-01-25T10:36:46;1.70;99.90
17423;DHT22;8829;47.932;7.810;2023-01-25T10:39:14;1.80;99.90
17423;DHT22;8829;47.932;7.810;2023-01-25T10:41:45;1.80;99.90
17423;DHT22;8829;47.932;7.810;2023-01-25T10:44:14;1.70;99.90
17423;DHT22;8829;47.932;7.810;2023-01-25T10:46:55;1.70;99.90
17423;DHT22;8829;47.932;7.810;2023-01-25T10:49:28;1.70;99.90
17423;DHT22;8829;47.932;7.810;2023-01-25T10:52:12;1.60;99.90
17423;DHT22;8829;47.932;7.810;2023-01-25T10:54:39;1.60;99.90
17423;DHT22;8829;47.932;7.810;2023-01-25T10:57:07;1.70;99.90
17423;DHT22;8829;47.932;7.810;2023-01-25T10:59:35;1.70;99.90
17423;DHT22;8829;47.932;7.810;2023-01-25T11:05:30;2.00;99.90
17423;DHT22;8829;47.932;7.810;2023-01-25T11:07:58;2.00;99.90
17423;DHT22;8829;47.932;7.810;2023-01-25T11:10:30;2.10;99.90
17423;DHT22;8829;47.932;7.810;2023-01-25T11:13:24;2.20;99.90
17423;DHT22;8829;47.932;7.810;2023-01-25T11:15:53;2.20;99.90
17423;DHT22;8829;47.932;7.810;2023-01-25T11:18:22;2.10;99.90
17423;DHT22;8829;47.932;7.810;2023-01-25T11:21:05;2.00;99.90
17423;DHT22;8829;47.932;7.810;2023-01-25T11:23:32;2.00;99.90
17423;DHT22;8829;47.932;7.810;2023-01-25T11:26:19;2.00;99.90
17423;DHT22;8829;47.932;7.810;2023-01-25T11:28:46;2.00;99.90
17423;DHT22;8829;47.932;7.810;2023-01-25T11:31:16;2.10;99.90
17423;DHT22;8829;47.932;7.810;2023-01-25T11:33:45;2.00;99.90
17423;DHT22;8829;47.932;7.810;2023-01-25T11:36:22;2.10;99.90
17423;DHT22;8829;47.932;7.810;2023-01-25T11:39:04;2.10;99.90
17423;DHT22;8829;47.932;7.810;2023-01-25T11:41:47;2.30;99.90
17423;DHT22;8829;47.932;7.810;2023-01-25T11:47:17;2.20;99.90
17423;DHT22;8829;47.932;7.810;2023-01-25T11:49:56;2.10;99.90
17423;DHT22;8829;47.932;7.810;2023-01-25T11:52:36;1.90;99.90
17423;DHT22;8829;47.932;7.810;2023-01-25T11:55:14;2.10;99.90
17423;DHT22;8829;47.932;7.810;2023-01-25T11:57:55;2.20;99.90
17423;DHT22;8829;47.932;7.810;2023-01-25T12:00:45;2.40;99.90
17423;DHT22;8829;47.932;7.810;2023-01-25T12:03:49;2.20;99.90
17423;DHT22;8829;47.932;7.810;2023-01-25T12:06:28;2.10;99.90
17423;DHT22;8829;47.932;7.810;2023-01-25T12:09:10;2.00;99.90
17423;DHT22;8829;47.932;7.810;2023-01-25T12:11:55;2.00;99.90
17423;DHT22;8829;47.932;7.810;2023-01-25T12:14:33;2.20;99.90
17423;DHT22;8829;47.932;7.810;2023-01-25T12:17:21;2.20;99.90
17423;DHT22;8829;47.932;7.810;2023-01-25T12:20:06;2.20;99.90
17423;DHT22;8829;47.932;7.810;2023-01-25T12:22:50;2.10;99.90
17423;DHT22;8829;47.932;7.810;2023-01-25T12:25:28;2.10;99.90
17423;DHT22;8829;47.932;7.810;2023-01-25T12:28:08;2.00;99.90
17423;DHT22;8829;47.932;7.810;2023-01-25T12:30:43;2.10;99.90
17423;DHT22;8829;47.932;7.810;2023-01-25T12:33:14;2.20;99.90
17423;DHT22;8829;47.932;7.810;2023-01-25T12:35:46;2.40;99.90
17423;DHT22;8829;47.932;7.810;2023-01-25T12:38:18;2.40;99.90
17423;DHT22;8829;47.932;7.810;2023-01-25T12:40:52;2.20;99.90
17423;DHT22;8829;47.932;7.810;2023-01-25T12:43:22;2.30;99.90
17423;DHT22;8829;47.932;7.810;2023-01-25T12:45:51;2.30;99.90
17423;DHT22;8829;47.932;7.810;2023-01-25T12:48:22;2.20;99.90
17423;DHT22;8829;47.932;7.810;2023-01-25T12:50:54;2.20;99.90
17423;DHT22;8829;47.932;7.810;2023-01-25T12:53:23;2.20;99.90
17423;DHT22;8829;47.932;7.810;2023-01-25T12:55:52;2.30;99.90
17423;DHT22;8829;47.932;7.810;2023-01-25T12:58:26;2.40;99.90
17423;DHT22;8829;47.932;7.810;2023-01-25T13:00:59;2.40;99.90
17423;DHT22;8829;47.932;7.810;2023-01-25T13:03:32;2.30;99.90
17423;DHT22;8829;47.932;7.810;2023-01-25T13:06:08;2.30;99.90
17423;DHT22;8829;47.932;7.810;2023-01-25T13:08:48;2.30;99.90
17423;DHT22;8829;47.932;7.810;2023-01-25T13:11:22;2.40;99.90
17423;DHT22;8829;47.932;7.810;2023-01-25T13:13:49;2.30;99.90
17423;DHT22;8829;47.932;7.810;2023-01-25T13:16:38;2.30;99.90
17423;DHT22;8829;47.932;7.810;2023-01-25T13:19:19;2.30;99.90
17423;DHT22;8829;47.932;7.810;2023-01-25T13:21:47;2.30;99.90
17423;DHT22;8829;47.932;7.810;2023-01-25T13:24:17;2.40;99.90
17423;DHT22;8829;47.932;7.810;2023-01-25T13:26:59;2.60;99.90
17423;DHT22;8829;47.932;7.810;2023-01-25T13:29:57;2.60;99.90
17423;DHT22;8829;47.932;7.810;2023-01-25T13:35:40;2.50;99.90
17423;DHT22;8829;47.932;7.810;2023-01-25T13:38:31;2.30;99.90
17423;DHT22;8829;47.932;7.810;2023-01-25T13:41:17;2.20;99.90
17423;DHT22;8829;47.932;7.810;2023-01-25T13:43:47;2.20;99.90
17423;DHT22;8829;47.932;7.810;2023-01-25T13:46:18;2.20;99.90
17423;DHT22;8829;47.932;7.810;2023-01-25T13:48:53;2.10;99.90
17423;DHT22;8829;47.932;7.810;2023-01-25T13:51:21;2.10;99.90
17423;DHT22;8829;47.932;7.810;2023-01-25T13:53:58;2.20;99.90
17423;DHT22;8829;47.932;7.810;2023-01-25T13:56:28;2.20;99.90
17423;DHT22;8829;47.932;7.810;2023-01-25T13:58:56;2.20;99.90
17423;DHT22;8829;47.932;7.810;2023-01-25T14:01:23;2.10;99.90
17423;DHT22;8829;47.932;7.810;2023-01-25T14:03:52;2.10;99.90
17423;DHT22;8829;47.932;7.810;2023-01-25T14:06:24;2.10;99.90
17423;DHT22;8829;47.932;7.810;2023-01-25T14:08:54;2.10;99.90
17423;DHT22;8829;47.932;7.810;2023-01-25T14:11:23;2.10;99.90
17423;DHT22;8829;47.932;7.810;2023-01-25T14:14:02;2.10;99.90
17423;DHT22;8829;47.932;7.810;2023-01-25T14:16:30;2.10;99.90
17423;DHT22;8829;47.932;7.810;2023-01-25T14:19:21;2.10;99.90
17423;DHT22;8829;47.932;7.810;2023-01-25T14:21:48;2.20;99.90
17423;DHT22;8829;47.932;7.810;2023-01-25T14:24:16;2.30;99.90
17423;DHT22;8829;47.932;7.810;2023-01-25T14:26:43;2.50;99.90
17423;DHT22;8829;47.932;7.810;2023-01-25T14:29:18;2.50;99.90
17423;DHT22;8829;47.932;7.810;2023-01-25T14:31:48;2.50;99.90
17423;DHT22;8829;47.932;7.810;2023-01-25T14:34:17;2.60;99.90
17423;DHT22;8829;47.932;7.810;2023-01-25T14:36:45;2.50;99.90
17423;DHT22;8829;47.932;7.810;2023-01-25T14:39:23;2.40;99.90
17423;DHT22;8829;47.932;7.810;2023-01-25T14:41:52;2.30;99.90
17423;DHT22;8829;47.932;7.810;2023-01-25T14:44:21;2.40;99.90
17423;DHT22;8829;47.932;7.810;2023-01-25T14:46:48;2.50;99.90
17423;DHT22;8829;47.932;7.810;2023-01-25T14:49:18;2.40;99.90
17423;DHT22;8829;47.932;7.810;2023-01-25T14:51:54;2.40;99.90
17423;DHT22;8829;47.932;7.810;2023-01-25T14:54:24;2.60;99.90
17423;DHT22;8829;47.932;7.810;2023-01-25T14:56:53;2.80;99.90
17423;DHT22;8829;47.932;7.810;2023-01-25T14:59:30;2.70;99.90
17423;DHT22;8829;47.932;7.810;2023-01-25T15:02:00;2.70;99.90
17423;DHT22;8829;47.932;7.810;2023-01-25T15:04:28;2.90;99.90
17423;DHT22;8829;47.932;7.810;2023-01-25T15:06:55;3.00;99.90
17423;DHT22;8829;47.932;7.810;2023-01-25T15:09:31;3.00;99.90
17423;DHT22;8829;47.932;7.810;2023-01-25T15:11:59;3.00;99.90
17423;DHT22;8829;47.932;7.810;2023-01-25T15:14:27;3.00;99.90
17423;DHT22;8829;47.932;7.810;2023-01-25T15:16:54;3.10;99.90
17423;DHT22;8829;47.932;7.810;2023-01-25T15:19:23;3.10;99.90
17423;DHT22;8829;47.932;7.810;2023-01-25T15:21:50;3.20;99.90
17423;DHT22;8829;47.932;7.810;2023-01-25T15:24:17;3.10;99.90
17423;DHT22;8829;47.932;7.810;2023-01-25T15:26:48;2.80;99.90
17423;DHT22;8829;47.932;7.810;2023-01-25T15:29:17;2.50;99.90
17423;DHT22;8829;47.932;7.810;2023-01-25T15:31:48;2.40;99.90
17423;DHT22;8829;47.932;7.810;2023-01-25T15:34:16;2.50;99.90
17423;DHT22;8829;47.932;7.810;2023-01-25T15:36:43;2.60;99.90
17423;DHT22;8829;47.932;7.810;2023-01-25T15:39:12;2.70;99.90
17423;DHT22;8829;47.932;7.810;2023-01-25T15:41:39;2.80;99.90
17423;DHT22;8829;47.932;7.810;2023-01-25T15:44:06;2.80;99.90
17423;DHT22;8829;47.932;7.810;2023-01-25T15:46:34;2.70;99.90
17423;DHT22;8829;47.932;7.810;2023-01-25T15:49:04;2.70;99.90
17423;DHT22;8829;47.932;7.810;2023-01-25T15:51:31;2.60;99.90
17423;DHT22;8829;47.932;7.810;2023-01-25T15:53:58;2.70;99.90
17423;DHT22;8829;47.932;7.810;2023-01-25T15:56:28;2.90;99.90
17423;DHT22;8829;47.932;7.810;2023-01-25T15:58:57;2.90;99.90
17423;DHT22;8829;47.932;7.810;2023-01-25T16:01:27;2.90;99.90
17423;DHT22;8829;47.932;7.810;2023-01-25T16:03:55;2.80;99.90
17423;DHT22;8829;47.932;7.810;2023-01-25T16:06:31;2.70;99.90
17423;DHT22;8829;47.932;7.810;2023-01-25T16:08:59;2.70;99.90
17423;DHT22;8829;47.932;7.810;2023-01-25T16:11:27;2.70;99.90
17423;DHT22;8829;47.932;7.810;2023-01-25T16:13:54;2.60;99.90
17423;DHT22;8829;47.932;7.810;2023-01-25T16:16:23;2.40;99.90
17423;DHT22;8829;47.932;7.810;2023-01-25T16:18:50;2.30;99.90
17423;DHT22;8829;47.932;7.810;2023-01-25T16:21:17;2.30;99.90
17423;DHT22;8829;47.932;7.810;2023-01-25T16:23:45;2.30;99.90
17423;DHT22;8829;47.932;7.810;2023-01-25T16:26:17;2.10;99.90
17423;DHT22;8829;47.932;7.810;2023-01-25T16:28:45;2.20;99.90